地図

経路データ

SID SEASON NUMBER BASIN SUBBASIN NAME ISO_TIME NATURE LAT LON WMO_WIND WMO_PRES WMO_AGENCY TRACK_TYPE DIST2LAND LANDFALL IFLAG USA_AGENCY USA_ATCF_ID USA_LAT USA_LON USA_RECORD USA_STATUS USA_WIND USA_PRES USA_SSHS USA_R34_NE USA_R34_SE USA_R34_SW USA_R34_NW USA_R50_NE USA_R50_SE USA_R50_SW USA_R50_NW USA_R64_NE USA_R64_SE USA_R64_SW USA_R64_NW USA_POCI USA_ROCI USA_RMW USA_EYE TOKYO_LAT TOKYO_LON TOKYO_GRADE TOKYO_WIND TOKYO_PRES TOKYO_R50_DIR TOKYO_R50_LONG TOKYO_R50_SHORT TOKYO_R30_DIR TOKYO_R30_LONG TOKYO_R30_SHORT TOKYO_LAND CMA_LAT CMA_LON CMA_CAT CMA_WIND CMA_PRES HKO_LAT HKO_LON HKO_CAT HKO_WIND HKO_PRES NEWDELHI_LAT NEWDELHI_LON NEWDELHI_GRADE NEWDELHI_WIND NEWDELHI_PRES NEWDELHI_CI NEWDELHI_DP NEWDELHI_POCI REUNION_LAT REUNION_LON REUNION_TYPE REUNION_WIND REUNION_PRES REUNION_TNUM REUNION_CI REUNION_RMW REUNION_R34_NE REUNION_R34_SE REUNION_R34_SW REUNION_R34_NW REUNION_R50_NE REUNION_R50_SE REUNION_R50_SW REUNION_R50_NW REUNION_R64_NE REUNION_R64_SE REUNION_R64_SW REUNION_R64_NW BOM_LAT BOM_LON BOM_TYPE BOM_WIND BOM_PRES BOM_TNUM BOM_CI BOM_RMW BOM_R34_NE BOM_R34_SE BOM_R34_SW BOM_R34_NW BOM_R50_NE BOM_R50_SE BOM_R50_SW BOM_R50_NW BOM_R64_NE BOM_R64_SE BOM_R64_SW BOM_R64_NW BOM_ROCI BOM_POCI BOM_EYE BOM_POS_METHOD BOM_PRES_METHOD NADI_LAT NADI_LON NADI_CAT NADI_WIND NADI_PRES WELLINGTON_LAT WELLINGTON_LON WELLINGTON_WIND WELLINGTON_PRES DS824_LAT DS824_LON DS824_STAGE DS824_WIND DS824_PRES TD9636_LAT TD9636_LON TD9636_STAGE TD9636_WIND TD9636_PRES TD9635_LAT TD9635_LON TD9635_WIND TD9635_PRES TD9635_ROCI NEUMANN_LAT NEUMANN_LON NEUMANN_CLASS NEUMANN_WIND NEUMANN_PRES MLC_LAT MLC_LON MLC_CLASS MLC_WIND MLC_PRES USA_GUST BOM_GUST BOM_GUST_PER REUNION_GUST REUNION_GUST_PER USA_SEAHGT USA_SEARAD_NE USA_SEARAD_SE USA_SEARAD_SW USA_SEARAD_NW STORM_SPEED STORM_DIR
1970180N20088 1970 57 NI BB NOT_NAMED 1970-06-29 03:00:00 NR 20.0000 88.1000 main 138 109 __________O___ -1 20.0000 88.1000 1 5 316
1970180N20088 1970 57 NI BB NOT_NAMED 1970-06-29 06:00:00 TS 20.1877 87.9119 main 109 94 O________OP___ jtwc_io IO051970 20.2000 87.9000 -1 20.2000 87.9000 TC 25 20.1754 87.9239 1 5 316
1970180N20088 1970 57 NI BB NOT_NAMED 1970-06-29 09:00:00 TS 20.3431 87.7463 main 85 66 P________PP___ IO051970 20.3375 87.7376 -1 20.3375 87.7376 TC 25 20.3505 87.7580 1 4 318
1970180N20088 1970 57 NI BB NOT_NAMED 1970-06-29 12:00:00 TS 20.5101 87.6053 main 66 52 O________OP___ jtwc_io IO051970 20.5000 87.6000 -1 20.5000 87.6000 TC 25 20.5254 87.6131 1 4 327
1970180N20088 1970 57 NI BB NOT_NAMED 1970-06-29 15:00:00 TS 20.7000 87.5000 main 52 41 P________PO___ IO051970 20.7000 87.5000 -1 20.7000 87.5000 TC 25 20.7000 87.5000 1 4 334
1970180N20088 1970 57 NI BB NOT_NAMED 1970-06-29 18:00:00 TS 20.8910 87.4068 main 43 38 O________OP___ jtwc_io IO051970 20.9000 87.4000 -1 20.9000 87.4000 TC 25 20.8729 87.4203 1 4 331
1970180N20088 1970 57 NI BB NOT_NAMED 1970-06-29 21:00:00 TS 21.0605 87.2899 main 45 23 P________PP___ IO051970 21.0725 87.2650 -1 21.0725 87.2650 TC 25 21.0366 87.3396 1 4 320
1970180N20088 1970 57 NI BB NOT_NAMED 1970-06-30 00:00:00 TS 21.1940 87.1381 main 23 10 O________OP___ jtwc_io IO051970 21.2000 87.1000 -1 21.2000 87.1000 TC 25 21.1820 87.2141 1 4 306
1970180N20088 1970 57 NI BB NOT_NAMED 1970-06-30 03:00:00 TS 21.2765 86.9733 main 10 0 P________PO___ IO051970 21.2647 86.9599 -1 21.2647 86.9599 TC 25 21.3000 87.0000 1 5 287
1970180N20088 1970 57 NI BB NOT_NAMED 1970-06-30 06:00:00 TS 21.3266 86.6717 main 0 0 O________OP___ jtwc_io IO051970 21.3000 86.7000 -1 21.3000 86.7000 TC 25 21.3797 86.6150 1 8 278
1970180N20088 1970 57 NI BB NOT_NAMED 1970-06-30 09:00:00 TS 21.3775 86.1633 main 0 0 P________PP___ IO051970 21.3505 86.1725 -1 21.3505 86.1725 TC 25 21.4314 86.1449 1 10 276
1970180N20088 1970 57 NI BB NOT_NAMED 1970-06-30 12:00:00 TS 21.4224 85.6175 main 0 0 O________OP___ jtwc_io IO051970 21.4000 85.6000 -1 21.4000 85.6000 TC 25 21.4672 85.6524 1 9 276
1970180N20088 1970 57 NI BB NOT_NAMED 1970-06-30 15:00:00 TS 21.4665 85.2033 main 0 0 P________PO___ IO051970 21.4498 85.2050 -1 21.4498 85.2050 TC 25 21.5000 85.2000 1 7 278
1970180N20088 1970 57 NI BB NOT_NAMED 1970-06-30 18:00:00 TS 21.5109 84.8995 main 0 0 O________OP___ jtwc_io IO051970 21.5000 84.9000 -1 21.5000 84.9000 TC 25 21.5328 84.8986 1 5 279
1970180N20088 1970 57 NI BB NOT_NAMED 1970-06-30 21:00:00 TS 21.5511 84.6472 main 0 0 P________PP___ IO051970 21.5423 84.6499 -1 21.5423 84.6499 TC 25 21.5687 84.6418 1 5 282
1970180N20088 1970 57 NI BB NOT_NAMED 1970-07-01 00:00:00 TS 21.6068 84.3964 main 0 0 O________OP___ jtwc_io IO051970 21.6000 84.4000 -1 21.6000 84.4000 TC 25 21.6203 84.3891 1 5 285
1970180N20088 1970 57 NI BB NOT_NAMED 1970-07-01 03:00:00 TS 21.6899 84.0916 main 0 0 P________PO___ IO051970 21.6848 84.0874 -1 21.6848 84.0874 TC 25 21.7000 84.1000 1 7 287
1970180N20088 1970 57 NI BB NOT_NAMED 1970-07-01 06:00:00 TS 21.8060 83.6900 main 0 0 O________OP___ jtwc_io IO051970 21.8000 83.7000 -1 21.8000 83.7000 TC 25 21.8180 83.6700 1 9 287
1970180N20088 1970 57 NI BB NOT_NAMED 1970-07-01 09:00:00 TS 21.9448 83.1920 main 0 0 P________PP___ IO051970 21.9353 83.1851 -1 21.9353 83.1851 TC 25 21.9637 83.2058 1 9 289
1970180N20088 1970 57 NI BB NOT_NAMED 1970-07-01 12:00:00 TS 22.1091 82.7212 main 0 0 O________OP___ jtwc_io IO051970 22.1000 82.7000 -1 22.1000 82.7000 TC 25 22.1274 82.7637 1 8 295
1970180N20088 1970 57 NI BB NOT_NAMED 1970-07-01 15:00:00 TS 22.2999 82.3883 main 0 0 P________PO___ IO051970 22.2998 82.3825 -1 22.2998 82.3825 TC 25 22.3000 82.4000 1 6 308
1970180N20088 1970 57 NI BB NOT_NAMED 1970-07-01 18:00:00 TS 22.4795 82.2014 main 0 0 O________OP___ jtwc_io IO051970 22.5000 82.2000 -1 22.5000 82.2000 TC 25 22.4386 82.2041 1 4 323
1970180N20088 1970 57 NI BB NOT_NAMED 1970-07-01 21:00:00 TS 22.6246 82.1244 main 0 0 P________PP___ IO051970 22.6424 82.1422 -1 22.6424 82.1422 TC 25 22.5890 82.0887 1 3 338
1970180N20088 1970 57 NI BB NOT_NAMED 1970-07-02 00:00:00 TS 22.7900 82.0680 main 0 0 O________OP___ jtwc_io IO051970 22.8000 82.1000 -1 22.8000 82.1000 TC 25 22.7700 82.0040 1 4 334
1970180N20088 1970 57 NI BB NOT_NAMED 1970-07-02 03:00:00 TS 23.0083 81.9199 main 0 0 P________PO___ IO051970 23.0125 81.9299 -1 23.0125 81.9299 TC 25 23.0000 81.9000 1 6 327
1970180N20088 1970 57 NI BB NOT_NAMED 1970-07-02 06:00:00 TS 23.3081 81.7001 main 0 0 O________OP___ jtwc_io IO051970 23.3000 81.7000 -1 23.3000 81.7000 TC 25 23.3242 81.7003 1 8 328
1970180N20088 1970 57 NI BB NOT_NAMED 1970-07-02 09:00:00 TS 23.6926 81.4579 main 0 0 P________PP___ IO051970 23.6925 81.4502 -1 23.6925 81.4502 TC 25 23.6927 81.4734 1 9 330
1970180N20088 1970 57 NI BB NOT_NAMED 1970-07-02 12:00:00 TS 24.0883 81.2116 main 0 0 O________OP___ jtwc_io IO051970 24.1000 81.2000 -1 24.1000 81.2000 TC 25 24.0648 81.2347 1 8 330
1970180N20088 1970 57 NI BB NOT_NAMED 1970-07-02 15:00:00 TS 24.4200 80.9949 main 0 0 P________PO___ IO051970 24.4299 80.9923 -1 24.4299 80.9923 TC 25 24.4000 81.0000 1 7 328
1970180N20088 1970 57 NI BB NOT_NAMED 1970-07-02 18:00:00 TS 24.6871 80.7928 main 0 0 O________OP___ jtwc_io IO051970 24.7000 80.8000 -1 24.7000 80.8000 TC 25 24.6678 80.7821 1 6 323
1970180N20088 1970 57 NI BB NOT_NAMED 1970-07-02 21:00:00 TS 24.8990 80.5928 main 0 0 P________PP___ IO051970 24.9151 80.6026 -1 24.9151 80.6026 TC 25 24.8775 80.5796 1 5 317
1970180N20088 1970 57 NI BB NOT_NAMED 1970-07-03 00:00:00 TS 25.0742 80.3937 main 0 0 O________OP___ jtwc_io IO051970 25.1000 80.4000 -1 25.1000 80.4000 TC 25 25.0485 80.3873 1 5 310
1970180N20088 1970 57 NI BB NOT_NAMED 1970-07-03 03:00:00 NR 25.2000 80.2000 main 0 __________O___ IO051970 -1 TC 25.2000 80.2000 1 4 305

IBTrACS Databaseについて

本データベースは、米国NOAAが公開する1842年以降の世界の熱帯低気圧のベストトラックデータアーカイブInternational Best Track Archive for Climate Stewardship (IBTrACS)を、ウェブで閲覧しやすい形式に変換したものです。

最終更新日:2021-10-21